Race Results for
Rockhopper Classic
Vacaville, CA
(Event Information)
View By:
Cross Country on 05/07/2011

Note: Ranking points are NOT upgrade points. An explanation of ranking points can be found here.


Men - Cat 1/2/3 - Clydesdale

 Place Points NameCity, StateTime USAC #BibTeam
1 Derald Sue   02:11:17:960  421 
2 Robert Raubach   02:23:40:720  422 
3 Edward Cruz   02:23:54:220  424 Xtreme Outfitters
4 Adrian Contreras   02:29:28:240  426 
5 Jeffrey Moore   02:30:44:490  423 Ray's Cycle
6 Patrick Dyer   Davis, CA02:42:50:750 10319  420 Mike's Velo City -velocitybicycles.com
7 Robert Braddock   Sacramento, CA02:49:18:520 111606  425 thebikebiz.com
DNF Jeremy Spurbeck   01:49:53:670  427 SBRC

Men - Cat 1/2/3 - Single Speed

 Place Points NameCity, StateTime USAC #BibTeam
1 Joshua Hughes   Sacramento, CA02:52:35:000 123925  408 Victory Velo
2 Ryan Fowler   Oakland, CA02:53:13:750 114450  406 
3 Fritz Wisor   Geneva, NY03:10:12:420 81066  403 Breakaway Bikes
4 Ryan Robinson   03:11:30:030  405 Folsom Breakouts
5 Kevin Denison   El Dorado Hills, CA03:26:18:790 303642  404 Team Mad Cat
6 Chris Shirar   03:30:14:790  400 Monticello
7 Cody Pratt   Visalia, CA03:36:24:310 285588  401 Sierra Bicycle Werks/Cannondale
8 Joe Carpenter   San Jose, CA03:42:45:310 301276  402 Team Mad Cat
DNF Bob Drowne   02:06:02:920  407 Monticello

Men - Cat 1/2/3 - Junior - 15-18

 Place Points NameCity, StateTime USAC #BibTeam
1 Max Houtzager   Ross, CA01:33:15:360 286995  440 Whole Athlete-Specialized
2 Sean Bennett   El Cerrito, CA01:45:08:410 347932  101 ECHS Racing
3 Aleck Crofoot   El Dorado Hills, CA01:50:08:870 334374  447 Oak Ridge Trojans

Men - Cat 3 - Senior - 19-29

 Place Points NameCity, StateTime USAC #BibTeam
1 Kevin Herron   Folsom, CA01:01:36:580 347570  301 The Hub
2 Sergio Sanchez   01:01:41:080  300 Grass Roots Racing Velo Wrench Bike Shop
3 Mark Juner   01:10:43:100  302 
4 Karl Ono   01:29:53:630  303 Team Get Shreddy

Men - Cat 3 - Master - 30-39

 Place Points NameCity, StateTime USAC #BibTeam
1 Peter Harney   01:03:22:680  320 Team Sharp Bicycles
2 Hector Pareja   01:04:57:330  324 Opi Commercial Builders
3 Daniel Lawson   01:07:17:850  325 
4 Adam Weiss   01:08:47:600  323 
5 Nathan Temple   01:08:57:850  351 
6 Damon Ropoulos   01:25:47:360  321 
7 Jason Dwyer   01:29:39:380  322 
8 Pete Perlegos   02:00:19:910  327 
9 Jason Pappas   02:00:21:410  326 

Men - Cat 3 - Master - 40-49

 Place Points NameCity, StateTime USAC #BibTeam
1 David Tripier   01:00:40:830  343 CoreTechs
2 Ken Montgomery   San Mateo, CA01:03:36:080 333348  345 
3 Rigoletto Pasibe   01:08:03:250  348 
4 Dennis Wolf   01:08:54:600  354 
5 Fernando Ontiveros   01:11:27:100  349 
6 Steven Woo   Los Altos, CA01:11:33:350 38840  340 Third Pillar
7 Rudy Castaniada   01:11:38:850  352 
8 Abito Ilustrisimo   01:13:21:850  346 Tropa
9 Dana Massey   01:15:30:600  347 
10 Jon Brockway   01:17:30:110  353 
11 Darrel James   Modesto, CA01:21:32:110 225665  344 Fun Sport Bikes Cycling Team
12 Henry Fernandis   01:23:21:860  350 
13 Daniel Sullivan   Vacaville, CA01:36:51:390 342354  342 Grass Roots Racing
14 Tim Shestak   01:41:21:640  341 

Men - Cat 3 - Master - 50-99

 Place Points NameCity, StateTime USAC #BibTeam
1 Brian McEvilly   Vacaville, CA01:10:37:600 195782  362 Precision Strong Rail
2 Jim Smith   01:15:44:850  361 
3 Michael Waldear   01:16:11:350  365 
4 Mark Helton   01:24:34:110  366 
5 Fred Gardiner   01:27:25:110  364 R.A.T.S.
6 Jerry Brickey   01:28:25:110  363 
7 James Frahm   Livermore, CA01:52:11:410 300666  360 Maciel Velo

Men - Cat 2/3 - Junior - 15-18

 Place Points NameCity, StateTime USAC #BibTeam
1 Ross Harrington   01:00:13:060  445 San Marin High School
2 Jordan Rosenbach   01:03:04:060  442 
3 Grant Snyder   El Dorado Hills, CA01:10:28:620 335988  490 Trojans Composite
4 Shane Allen   Mill Valley, CA01:10:55:330 343324  448 Tam Bikes
5 Kyle Denison (1 - Cat3)   El Dorado Hills, CA01:13:24:080 303671  446 Team Mad Cat
6 Peter Saathoff   01:14:18:080  444 Novato High
7 Alec Seivert   01:24:06:590  449 
8 Chase Williams   01:26:24:840  443 Novato High

Men - Cat 2 - Senior - 19-29

 Place Points NameCity, StateTime USAC #BibTeam
1 Corey Bray   San Francisco, CA01:53:32:020 348518  106 
2 Ryan Price   01:57:19:270  114 
3 Nathan Powell   01:59:11:770  113 Victory Velo Bike Shop
4 thomas hammond   Santa Rosa, CA02:01:50:020 290911  109 
5 benjamin orven zamora   San Jose, CA02:03:21:770 301592  102 Team Tropa
6 Brett Maur   El Dorado Hills, CA02:05:01:040 335626  104 Trojans
7 Kurtis Westbrook   02:05:43:040  112 Team Get Shreddy
8 Will Lewis   02:07:37:290  111 
9 Jasper Riis   02:14:33:790  107 
10 Tyson Tate   02:36:27:330  110 
DNF Gary Nagle   Reno, NV01:20:16:380 302983  103 Nevada Cycling

Men - Cat 2 - Master - 30-39

 Place Points NameCity, StateTime USAC #BibTeam
1 Doug Baker   01:49:04:750  127 Willow Glen Bikes
2 Dustin White   San Francisco, CA01:54:13:820 253687  121 Sheila Moon
3 Ryan Stroup   San Jose, CA01:54:28:270 101309  126 Epicenter Bikes Aptos
4 Paul Marshall   San Jose, CA01:57:30:770 349232  123 
5 Josh Moberg   San Bruno, CA01:58:20:270 317988  131 Slow Old Guys Who Get Their Butts Kicked
6 Josh Walker   Oakland, CA02:04:22:520 36997  122 
7 Frank Sisneros   02:05:39:890  120 Monticello
8 Andrew Yee   02:08:59:290  129 HUP United
9 Scott Mitterer   02:10:54:290  128 
10 Ryan Gibson   02:12:55:790  125 
11 Martin Koran   02:15:57:050  137 SBRC
12 Brian Denina   02:17:08:800  130 MyTropa.com
13 Benjamin Moomey   02:18:22:550  124 
14 Matthew Boser   Berkeley, CA02:21:44:050 327202  134 Cal Cycling
15 Matthew Bush   02:27:18:320  135 
16 Mike Schowalter   San Francisco, CA02:31:13:940 286914  132 USF Law Cyclists Anonymous
17 Isaac Facundo   02:49:06:850  136 Team Response
DNF Dan Wesp   01:14:17:210  133 Monticello

Men - Cat 2 - Master - 40-49

 Place Points NameCity, StateTime USAC #BibTeam
1 Mike Pugh   01:50:29:290  159 Davis Bike Club Race Team
2 Brad Stompe   01:52:05:750  152 LVMBC
3 Rann Valdez   Pleasant Hill, CA01:55:01:270 142965  161 Precision Stone Racing
4 Pat Beckley   Corning, CA01:55:00:520 250242  140 Visenka
5 Dave George   02:01:00:710  145 Kinetic Cycles
6 William Waggoner   Sacramento, CA02:01:47:770 196269  148 Davis Bike Club Race Team
7 Adam Mcaboy   02:02:07:270  149 Novato
8 Christopher Munoz   02:02:24:770  144 Bikes 4 Life
9 Derek Rose   02:02:33:020  142 
10 Eric Olson   02:02:44:770  156 Summit Bikes
11 Rick Ferdinandsen   Fresno, CA02:03:48:520 304441  158 Stevens Bicycle Racing
12 Dustin Slack   02:05:49:290  155 Team Debshred
13 Steve Rothenberg   02:06:34:290  143 Clean Coat Painting
14 Shawn Miller   Davis, CA02:06:33:040 24477  157 Davis Bike Club
15 James Donohoe   02:08:22:540  151 
16 Eric Lowe   02:10:33:040  153 HUP United
17 Justin Madison   02:13:42:300  164 Stone Persion Racing
18 David Collins   02:14:51:790  150 
19 Jidi Wong   02:17:04:300  165 
20 Al Painter   02:26:49:570  154 INTEGRATE Performance Fitness
21 Denis Vian   02:28:16:820  163 
DNF Alan Walls   Antelope, CA01:19:42:470 110156  146 Davis Bike Club
DNF Brian Sisneros   02:05:32:040  160 

Men - Cat 2 - Master - 50-99

 Place Points NameCity, StateTime USAC #BibTeam
1 Billy Fontaine   01:54:53:520  185 El Sob Pedaler
2 Ken Shiokari   Pacifica, CA02:00:56:770 228280  171 Price Point
3 John Grubbs   02:03:10:770  175 Kinetic Cycles
4 Thomas Smith   Oakdale, CA02:06:00:790 79205  177 
5 Bruce Parr   Gold River, CA02:06:11:790 160271  178 
6 Paul Falvey   Grass Valley, CA02:07:36:290 11212  184 X-O
7 Chris Pickett   02:08:58:040  188 
8 Luke DiMichele   02:09:32:790  186 Monticello
9 Albert Fox   02:13:40:790  174 Monticello
10 John Miller   02:17:02:550  183 
11 Mike Sinyard   Morgan Hill, CA02:18:44:050 206323  182 
12 Phil Fisher   02:19:03:050  189 Whiskey Boys Racing
13 Gary Young   Pacifica, CA02:20:06:800 350300  180 Team Integrate
14 Brian Birch   Oakland, CA02:20:14:050 159719  172 Team Mad Cat
15 Randy Batsell   02:21:41:050  173 Bikes For Life
16 John Seivert   Grass Valley, CA02:24:34:570 212792  187 SERT/Sho-Air
17 Bernard Demai   02:29:59:320  181 
18 William Dunkum   Cool, CA02:37:23:580 157140  179 Team Mad Cat
19 Rob Wassmer   Sacramento, CA02:42:34:830 349444  176 Kinetic Cycle
20 Tony Breslin   02:47:17:600  190 Trojans High School MTB
DNF Rich Henthorn   01:14:04:960  170 Team Wrong Way

Men - Cat 1 - Senior - 19-29

 Place Points NameCity, StateTime USAC #BibTeam
1 David Miller   Ashburn, VA02:39:51:230 306798  21 Delta Velo
2 Mat Gordon   San Francisco, CA02:44:07:480 191313  22 Fusion Sport USA
3 Matt Slafkosky   Port Costa, CA03:07:57:030 139415  20 
DNF Anthony Santamaria   Davis, CA01:17:16:610 199152  24 
DNF Reid Lionakis   El Dorado Hills, CA01:55:43:900 317768  23 Kinetic Cycles

Men - Cat 1 - Master - 30-39

 Place Points NameCity, StateTime USAC #BibTeam
1 Gregory Anderson   Vacaville, CA02:31:06:720 90802  36 Morgan Stanley/Specialized
2 Gabriel Forsythe   02:42:23:980  31 Scotts Valley Cycle Sports
3 Ron Shevock   Folsom, CA02:47:30:480 294396  32 Team Mad Cat
4 Andrew Damiano   North Highlands, CA03:18:16:290 76433  30 
DNF Mark Valentino   El Dorado Hills, CA01:04:50:840 112974  35 Folsom Bike
DNF Dylan McReynolds   Berkeley, CA01:57:32:670 23832  34 Berkeley Bike Club

Men - Cat 1 - Master - 40-49

 Place Points NameCity, StateTime USAC #BibTeam
1 Dario Fredrick   San Anselmo, CA02:22:28:450 12329  41 Whole Athlete - Specialized
2 Stanislaus (Stosh) Bankston   Olympic Valley, CA02:33:22:220 2494  45 Bicycle Emporium
3 John Hunt   Fairfax, CA02:37:18:980 17154  40 Cal Giant
4 Greg Fales   Orangevale, CA02:43:10:730 275788  48 Team Bicycles Plus/Sierra Nevada
5 Leif Rohrbach   Concord, CA02:47:54:480 296786  46 Team Diablo
6 Den Satake   Mill Valley, CA02:50:56:250 56630  47 Tam Bikes
7 Robert Raymond   Hayward, CA02:57:35:500 200414  42 InfoVista
8 Kurstin Graham   Reno, NV03:34:12:060 129537  43 Reno Wheelman
9 Chris DuBurg   Los Gatos, CA03:34:43:810 232893  49 Honey Badger
DNF Allen Hill   Reno, NV02:13:06:940 16168  44 Bicycle Bananas

Men - Cat 1 - Master - 50-99

 Place Points NameCity, StateTime USAC #BibTeam
1 William Sans   San Mateo, CA02:46:28:730 48284  57 GBI/Kinetic Cycles
2 Craig Lindberg   Nevada City, CA02:55:35:500 83707  55 SERT/SHO-AIR
3 William Buckingham   Ross, CA02:58:57:010 127538  50 Above Category
4 Rob Stark   Elkgrove, CA03:05:06:760 287188  53 Team Mad Cat
5 Randy Floyd   Newcastle, CA03:08:51:030 90079  54 Body Concepts
6 Marty Cunningham   Sacrament Ca03:24:05:290 8359  51 Fred Lewis Construction
DNF Tom Strause   Elk Grove, CA01:37:03:140 321390  52 Kinetic Cycles
DNF Wayne Stranton   00:56:58:840  56 Sierra Express Racing Team

Men - Pro

 Place Points NameCity, StateTime USAC #BibTeam
1 Brent Prenzlow   Carlsbad, CA02:23:26:700 28646  Celo Pacific/B&L
2 Michael Hosey   Cotati, CA02:24:06:450 195352  Marin
3 Clinton Claassen   El Dorado Hills, CA02:26:22:950 278360  10 Team Mad Cat
4 Robert Anderson   Mill Valley, CA02:32:55:470 1688  Team Specialized Racing Masters
5 Tsering Alleyne   Novato, CA02:34:59:220 196474  11 Morih Bikes
6 Daniel McNaughton   Martinez, CA02:37:42:980 110305  Content Works/Uncom Machine
7 Gabe Cheese   02:50:16:000  12 Team Clinco
DNF Ron Castia   Livermore, CA01:47:42:650 144264  InfoVista Cycling Team
DNF Robert Dillion   Santa Rosa, CA00:56:33:090 218573  Jamis Factory Team

Women - Cat 1/2/3 - Junior - 15-18

 Place Points NameCity, StateTime USAC #BibTeam
1 Sofia Hamilton   San Anselmo, CA02:02:05:440 298034  66 Whole Athlete - Specialized
2 Josie Nordrum   Corte Madera, CA02:04:49:940 320882  452 Whole Athlete- Specialized

Women - Cat 3 - Senior

 Place Points NameCity, StateTime USAC #BibTeam
1 Daniela Dwyer   01:32:40:610  371 
2 Emily Breslin   01:32:41:610  373 Team Oakland Cycling
3 Christina Lee   01:33:58:030  372 
4 Karla Barragan   02:14:30:420  370 

Women - Cat 3 - Master - 40-99

 Place Points NameCity, StateTime USAC #BibTeam
1 Jessica Tanihana   Roseville, CA01:40:20:370 338150  380 TimeYourRace.com

Women - Cat 2/3 - Junior - 10-18

 Place Points NameCity, StateTime USAC #BibTeam
1 Avery Morin   Roseville, CA01:13:14:580 266914  451 Team Mad Cat
2 Tatiana Sisneros   01:50:24:620  450 Monticello
3 Molly McGhee (1 - Cat3)   Roseville, CA01:52:54:140 338138  453 TimeYourRace.com

Women - Cat 2 - Senior

 Place Points NameCity, StateTime USAC #BibTeam
1 Leslie Creed   Dixon, CA02:17:53:720 158064  201 Velo Wrench
2 Jen Shevock   02:24:16:970  200 Folsom Bike
3 Anna Baker   02:40:27:500  203 
4 Stephanie Miller   03:05:32:550  202 

Women - Cat 2 - Master - 40-99

 Place Points NameCity, StateTime USAC #BibTeam
1 Becky Brain   Pleasant Hill, CA02:32:51:990 85634  211 Taleo Racing
DNF Shari Raymond   Hayward, CA01:18:31:890 200415  210 InfoVista
DNF Sharel Hutchison   Sacramento, CA01:56:11:350 349956  212 Davis Bike Club

Women - Cat 1

 Place Points NameCity, StateTime USAC #BibTeam
1 Carrie Edwards   Sausalito, CA03:02:31:160 99021  60 Sheila Moon/Big Swing
2 Erin Alders   Nevada City, CA03:09:54:550 196090  64 Sierra Express
3 Tara Walhart   San Francisco, CA03:10:00:050 133103  61 Team Campmor
4 Kelly Chang   Oakland, CA03:14:02:550 405  65 SyCip
5 Carol Boland   Capitola, CA03:28:41:060 233406  70 Stevens
6 Sian Turner   Truckee, CA03:31:23:100 306583  67 
7 Asa Salas   Folsom, CA03:34:04:830 115370  69 Team Mad Cat
8 Katherine Pollard   Los Angles, CA03:48:34:890 256535  62 Team Mad Cat
9 Elizabeth Peres   04:00:30:860  68 Team Mad Cat
DNF Kimberley Alvarez   Gold River, CA01:18:45:880 308632  63 Team Mad Cat

Women - Pro

 Place Points NameCity, StateTime USAC #BibTeam
1 Sarah Maile   Sacramento, CA02:55:56:520 163025  Ventana MTB

Report missing or incorrect license numbers

Volkswagen
SpyBonk BreakerShimanoCUORESierra NevadaUSACDFOSMO
UCI USA Cycling is the official governing body for all disciplines of competitive cycling in the United States. The 501c3, membership-based organization aims both to achieve sustained success in international cycling competition and to grow competitive cycling in America while delivering an exceptional customer experience.
View Children's Online Privacy Protection Policy
US Olympic Committee